createdAt,value
2022-12-24T00:02:16.388Z,91870.41
2022-12-24T00:04:48.829Z,91860.88
2022-12-24T00:07:21.224Z,91859.06
2022-12-24T00:09:54.153Z,91865.22
2022-12-24T00:12:26.553Z,91853.16
2022-12-24T00:14:58.884Z,91863.16
2022-12-24T00:17:31.328Z,91867.56
2022-12-24T00:20:04.326Z,91857.50
2022-12-24T00:22:36.896Z,91859.06
2022-12-24T00:25:10.205Z,91870.13
2022-12-24T00:27:42.570Z,91861.16
2022-12-24T00:30:15.136Z,91869.84
2022-12-24T00:32:47.525Z,91857.00
2022-12-24T00:35:19.849Z,91851.84
2022-12-24T00:37:52.186Z,91839.97
2022-12-24T00:40:25.170Z,91861.03
2022-12-24T00:42:57.845Z,91846.34
2022-12-24T00:45:30.181Z,91848.59
2022-12-24T00:48:02.801Z,91848.59
2022-12-24T00:50:35.160Z,91850.41
2022-12-24T00:53:07.544Z,91849.63
2022-12-24T00:55:40.559Z,91851.72
2022-12-24T00:58:12.973Z,91848.09
2022-12-24T01:00:45.316Z,91854.00
2022-12-24T01:03:17.807Z,91859.84
2022-12-24T01:05:51.038Z,91849.03
2022-12-24T01:08:23.378Z,91854.41
2022-12-24T01:10:56.817Z,91857.78
2022-12-24T01:13:29.314Z,91860.03
2022-12-24T01:16:02.473Z,91874.19
2022-12-24T01:18:34.938Z,91860.81
2022-12-24T01:21:07.226Z,91851.56
2022-12-24T01:23:39.619Z,91851.56
2022-12-24T01:26:12.715Z,91851.56
2022-12-24T01:28:45.142Z,91848.22
2022-12-24T01:31:18.990Z,91851.50
2022-12-24T01:33:51.415Z,91856.09
2022-12-24T01:36:23.712Z,91857.66
2022-12-24T01:38:56.124Z,91865.06
2022-12-24T01:41:49.615Z,91860.69
2022-12-24T01:44:31.231Z,91861.09
2022-12-24T01:47:12.825Z,91854.00
2022-12-24T01:49:49.549Z,91848.84
2022-12-24T01:52:26.375Z,91850.66
2022-12-24T01:55:02.779Z,91865.06
2022-12-24T01:57:39.972Z,91859.13
2022-12-24T02:00:15.227Z,91856.75
2022-12-24T02:02:50.403Z,91851.44
2022-12-24T02:05:28.302Z,91840.34
2022-12-24T02:08:03.203Z,91841.88
2022-12-24T02:10:35.662Z,91846.06
2022-12-24T02:13:09.280Z,91837.03
2022-12-24T02:16:00.413Z,91842.72
2022-12-24T02:18:40.976Z,91846.06
2022-12-24T02:21:46.162Z,91849.41
2022-12-24T02:24:32.199Z,91849.41
2022-12-24T02:27:29.444Z,91863.28
2022-12-24T02:30:07.028Z,91864.25
2022-12-24T02:33:09.352Z,91858.00
2022-12-24T02:35:49.852Z,91858.41
2022-12-24T02:38:26.462Z,91849.66
2022-12-24T02:41:02.331Z,91852.44
2022-12-24T02:43:37.120Z,91850.34
2022-12-24T02:46:14.099Z,91837.75
2022-12-24T02:48:48.475Z,91833.09
2022-12-24T02:51:23.443Z,91829.56
2022-12-24T02:53:58.795Z,91826.47
2022-12-24T02:56:54.736Z,91827.72
2022-12-24T02:59:43.616Z,91826.41
2022-12-24T03:02:26.338Z,91822.00
2022-12-24T03:05:10.164Z,91815.28
2022-12-24T03:07:51.431Z,91815.84
2022-12-24T03:10:28.863Z,91817.88
2022-12-24T03:13:05.972Z,91810.59
2022-12-24T03:15:39.009Z,91804.94
2022-12-24T03:18:15.155Z,91806.47
2022-12-24T03:20:54.559Z,91810.06
2022-12-24T03:23:27.159Z,91802.06
2022-12-24T03:26:01.579Z,91803.38
2022-12-24T03:28:34.456Z,91803.38
2022-12-24T03:31:08.600Z,91804.63
2022-12-24T03:33:42.021Z,91802.59
2022-12-24T03:36:14.385Z,91801.50
2022-12-24T03:38:46.797Z,91808.69
2022-12-24T03:41:19.167Z,91803.78
2022-12-24T03:43:51.541Z,91803.69
2022-12-24T03:46:23.943Z,91805.75
2022-12-24T03:48:57.967Z,91814.97
2022-12-24T03:51:32.555Z,91803.69
2022-12-24T03:54:05.000Z,91811.09
2022-12-24T03:56:37.355Z,91807.81
2022-12-24T03:59:09.739Z,91811.09
2022-12-24T04:01:42.124Z,91810.88
2022-12-24T04:04:15.343Z,91823.47
2022-12-24T04:06:47.643Z,91825.25
2022-12-24T04:09:20.049Z,91825.72
2022-12-24T04:11:52.331Z,91834.88
2022-12-24T04:14:24.973Z,91837.44
2022-12-24T04:16:57.378Z,91832.56
2022-12-24T04:19:30.453Z,91838.47
2022-12-24T04:22:02.804Z,91844.91
2022-12-24T04:24:35.192Z,91846.38
2022-12-24T04:27:07.468Z,91849.59
2022-12-24T04:29:39.835Z,91857.59
2022-12-24T04:32:12.271Z,91857.81
2022-12-24T04:34:45.334Z,91862.94
2022-12-24T04:37:17.646Z,91872.97
2022-12-24T04:39:50.020Z,91879.94
2022-12-24T04:42:22.315Z,91880.81
2022-12-24T04:44:54.681Z,91876.22
2022-12-24T04:47:27.010Z,91878.41
2022-12-24T04:50:00.872Z,91889.38
2022-12-24T04:52:33.770Z,91882.91
2022-12-24T04:55:07.251Z,91884.25
2022-12-24T04:57:39.564Z,91878.84
2022-12-24T05:00:12.818Z,91881.03
2022-12-24T05:02:45.180Z,91871.63
2022-12-24T05:05:18.355Z,91872.94
2022-12-24T05:07:50.621Z,91867.28
2022-12-24T05:10:23.023Z,91862.94
2022-12-24T05:12:55.404Z,91857.03
2022-12-24T05:15:27.820Z,91850.03
2022-12-24T05:18:00.515Z,91843.34
2022-12-24T05:20:33.615Z,91835.91
2022-12-24T05:23:26.263Z,91836.44
2022-12-24T05:26:16.899Z,91838.69
2022-12-24T05:28:49.751Z,91846.72
2022-12-24T05:31:24.122Z,91844.31
2022-12-24T05:33:56.476Z,91856.31
2022-12-24T05:36:29.546Z,91849.25
2022-12-24T05:39:01.916Z,91840.72
2022-12-24T05:41:34.328Z,91845.28
2022-12-24T05:44:06.649Z,91835.69
2022-12-24T05:46:39.264Z,91841.03
2022-12-24T05:49:11.984Z,91831.56
2022-12-24T05:51:45.002Z,91825.75
2022-12-24T05:54:17.480Z,91827.38
2022-12-24T05:56:49.881Z,91828.47
2022-12-24T05:59:22.233Z,91826.44
2022-12-24T06:01:54.648Z,91833.72
2022-12-24T06:04:29.184Z,91837.16
2022-12-24T06:07:02.680Z,91845.22
2022-12-24T06:09:34.999Z,91849.09
2022-12-24T06:12:07.529Z,91841.22
2022-12-24T06:14:39.884Z,91850.25
2022-12-24T06:17:12.249Z,91842.31
2022-12-24T06:19:44.608Z,91847.75
2022-12-24T06:22:17.888Z,91852.13
2022-12-24T06:24:50.275Z,91856.00
2022-12-24T06:27:22.704Z,91859.09
2022-12-24T06:29:55.044Z,91860.19
2022-12-24T06:32:27.470Z,91864.84
2022-12-24T06:34:59.780Z,91866.94
2022-12-24T06:37:32.850Z,91862.88
2022-12-24T06:40:06.013Z,91873.50
2022-12-24T06:42:38.417Z,91877.16
2022-12-24T06:45:11.140Z,91882.59
2022-12-24T06:47:43.725Z,91877.44
2022-12-24T06:50:16.116Z,91880.88
2022-12-24T06:52:49.228Z,91887.91
2022-12-24T06:55:21.839Z,91880.28
2022-12-24T06:57:54.210Z,91874.19
2022-12-24T07:00:26.541Z,91869.66
2022-12-24T07:02:59.069Z,91872.81
2022-12-24T07:05:31.443Z,91875.66
2022-12-24T07:08:04.956Z,91877.75
2022-12-24T07:10:37.252Z,91876.28
2022-12-24T07:13:09.642Z,91878.88
2022-12-24T07:15:41.998Z,91877.91
2022-12-24T07:18:14.942Z,91884.91
2022-12-24T07:20:47.255Z,91888.28
2022-12-24T07:23:20.732Z,91881.16
2022-12-24T07:25:53.068Z,91871.19
2022-12-24T07:28:28.084Z,91877.59
2022-12-24T07:31:00.913Z,91882.28
2022-12-24T07:33:33.687Z,91880.00
2022-12-24T07:36:08.580Z,91881.38
2022-12-24T07:38:41.731Z,91888.41
2022-12-24T07:41:14.666Z,91887.88
2022-12-24T07:43:47.071Z,91887.91
2022-12-24T07:46:19.565Z,91887.31
2022-12-24T07:48:52.011Z,91890.72
2022-12-24T07:51:24.334Z,91890.31
2022-12-24T07:53:57.372Z,91885.53
2022-12-24T07:56:30.023Z,91885.91
2022-12-24T07:59:02.711Z,91889.22
2022-12-24T08:01:35.569Z,91892.19
2022-12-24T08:04:08.172Z,91899.25
2022-12-24T08:06:40.594Z,91900.88
2022-12-24T08:09:14.581Z,91907.38
2022-12-24T08:11:51.953Z,91907.69
2022-12-24T08:14:24.985Z,91907.22
2022-12-24T08:16:57.488Z,91909.59
2022-12-24T08:19:29.874Z,91900.63
2022-12-24T08:22:02.237Z,91898.34
2022-12-24T08:24:36.772Z,91896.03
2022-12-24T08:27:09.156Z,91891.97
2022-12-24T08:29:41.582Z,91889.38
2022-12-24T08:32:13.916Z,91875.72
2022-12-24T08:34:46.330Z,91880.38
2022-12-24T08:37:18.670Z,91884.75
2022-12-24T08:39:51.746Z,91877.00
2022-12-24T08:42:24.187Z,91872.34
2022-12-24T08:44:56.596Z,91880.59
2022-12-24T08:47:29.000Z,91893.00
2022-12-24T08:50:01.411Z,91891.97
2022-12-24T08:52:33.819Z,91891.69
2022-12-24T08:55:07.874Z,91906.91
2022-12-24T08:57:40.312Z,91901.75
2022-12-24T09:00:13.873Z,91921.34
2022-12-24T09:02:46.351Z,91919.78
2022-12-24T09:05:18.947Z,91919.50
2022-12-24T09:07:51.349Z,91920.28
2022-12-24T09:10:24.544Z,91920.59
2022-12-24T09:12:56.899Z,91919.09
2022-12-24T09:15:29.410Z,91914.91
2022-12-24T09:18:02.276Z,91914.38
2022-12-24T09:20:34.732Z,91917.47
2022-12-24T09:23:07.078Z,91906.84
2022-12-24T09:25:41.635Z,91916.69
2022-12-24T09:28:13.977Z,91927.00
2022-12-24T09:30:55.348Z,91916.63
2022-12-24T09:33:28.864Z,91922.81
2022-12-24T09:36:01.676Z,91921.50
2022-12-24T09:38:34.960Z,91915.53
2022-12-24T09:41:22.685Z,91913.44
2022-12-24T09:44:00.377Z,91918.88
2022-12-24T09:46:35.860Z,91920.91
2022-12-24T09:49:14.436Z,91919.16
2022-12-24T09:51:50.903Z,91912.19
2022-12-24T09:54:28.029Z,91904.91
2022-12-24T09:57:14.244Z,91902.06
2022-12-24T09:59:47.331Z,91890.66
2022-12-24T10:02:27.145Z,91874.13
2022-12-24T10:04:59.651Z,91909.16
2022-12-24T10:07:46.010Z,91911.66
2022-12-24T10:10:28.110Z,91903.59
2022-12-24T10:13:08.586Z,91896.34
2022-12-24T10:15:49.674Z,91896.25
2022-12-24T10:18:32.271Z,91888.31
2022-12-24T10:21:12.423Z,91882.00
2022-12-24T10:23:53.315Z,91892.22
2022-12-24T10:26:30.368Z,91876.59
2022-12-24T10:29:15.225Z,91879.72
2022-12-24T10:31:53.751Z,91877.28
2022-12-24T10:34:30.411Z,91874.84
2022-12-24T10:37:03.720Z,91874.22
2022-12-24T10:39:36.357Z,91872.28
2022-12-24T10:42:11.164Z,91868.06
2022-12-24T10:44:49.541Z,91853.75
2022-12-24T10:47:22.352Z,91867.81
2022-12-24T10:50:02.750Z,91861.34
2022-12-24T10:52:40.799Z,91877.28
2022-12-24T10:55:23.443Z,91869.91
2022-12-24T10:58:02.137Z,91869.47
2022-12-24T11:00:36.914Z,91876.94
2022-12-24T11:03:23.433Z,91875.22
2022-12-24T11:06:02.030Z,91876.16
2022-12-24T11:08:35.675Z,91875.09
2022-12-24T11:11:12.965Z,91871.59
2022-12-24T11:13:51.944Z,91877.34
2022-12-24T11:16:28.923Z,91874.31
2022-12-24T11:19:03.739Z,91877.13
2022-12-24T11:21:39.185Z,91870.03
2022-12-24T11:24:25.537Z,91865.84
2022-12-24T11:27:23.562Z,91873.31
2022-12-24T11:30:18.354Z,91881.81
2022-12-24T11:33:21.475Z,91874.63
2022-12-24T11:36:00.314Z,91878.81
2022-12-24T11:38:34.116Z,91886.41
2022-12-24T11:41:09.268Z,91887.41
2022-12-24T11:43:45.115Z,91880.16
2022-12-24T11:46:35.624Z,91883.97
2022-12-24T11:49:22.319Z,91873.97
2022-12-24T11:52:22.038Z,91887.25
2022-12-24T11:55:15.497Z,91880.78
2022-12-24T11:57:56.932Z,91883.88
2022-12-24T12:00:29.322Z,91879.00
2022-12-24T12:03:04.131Z,91880.84
2022-12-24T12:05:38.758Z,91872.59
2022-12-24T12:08:18.580Z,91882.50
2022-12-24T12:10:52.248Z,91887.06
2022-12-24T12:13:32.515Z,91883.56
2022-12-24T12:16:13.808Z,91888.97
2022-12-24T12:18:52.548Z,91887.41
2022-12-24T12:21:32.126Z,91890.59
2022-12-24T12:24:10.723Z,91891.38
2022-12-24T12:26:45.059Z,91888.53
2022-12-24T12:29:26.141Z,91887.00
2022-12-24T12:32:04.315Z,91879.69
2022-12-24T12:34:41.975Z,91883.56
2022-12-24T12:37:21.676Z,91878.16
2022-12-24T12:39:54.562Z,91879.31
2022-12-24T12:42:32.118Z,91889.75
2022-12-24T12:45:28.837Z,91896.84
2022-12-24T12:48:29.328Z,91908.91
2022-12-24T12:51:07.749Z,91906.41
2022-12-24T12:53:53.639Z,91911.41
2022-12-24T12:56:30.856Z,91905.91
2022-12-24T12:59:12.375Z,91911.59
2022-12-24T13:01:56.203Z,91917.97
2022-12-24T13:05:08.371Z,91922.78
2022-12-24T13:07:58.234Z,91923.25
2022-12-24T13:11:03.001Z,91919.03
2022-12-24T13:14:02.269Z,91919.03
2022-12-24T13:17:06.358Z,91930.75
2022-12-24T13:19:57.922Z,91930.69
2022-12-24T13:22:30.244Z,91936.16
2022-12-24T13:25:02.823Z,91949.94
2022-12-24T13:27:35.982Z,91947.94
2022-12-24T13:30:34.934Z,91954.75
2022-12-24T13:33:11.711Z,91940.22
2022-12-24T13:36:01.798Z,91942.03
2022-12-24T13:38:42.041Z,91938.19
2022-12-24T13:41:49.219Z,91937.13
2022-12-24T13:44:33.154Z,91942.06
2022-12-24T13:47:29.938Z,91946.06
2022-12-24T13:50:24.563Z,91953.00
2022-12-24T13:52:56.984Z,91959.75
2022-12-24T13:55:30.038Z,91949.56
2022-12-24T13:58:05.001Z,91951.69
2022-12-24T14:00:41.399Z,91940.03
2022-12-24T14:03:23.559Z,91949.38
2022-12-24T14:05:59.423Z,91946.50
2022-12-24T14:08:37.665Z,91943.44
2022-12-24T14:11:13.319Z,91947.94
2022-12-24T14:14:09.702Z,91946.97
2022-12-24T14:16:46.176Z,91955.44
2022-12-24T14:19:22.458Z,91964.63
2022-12-24T14:22:01.440Z,91960.22
2022-12-24T14:24:35.919Z,91965.63
2022-12-24T14:27:17.130Z,91958.81
2022-12-24T14:29:52.858Z,91968.88
2022-12-24T14:32:34.955Z,91976.94
2022-12-24T14:35:14.995Z,91974.63
2022-12-24T14:37:51.590Z,91975.88
2022-12-24T14:40:27.625Z,91973.50
2022-12-24T14:43:09.413Z,91978.34
2022-12-24T14:45:48.513Z,91978.03
2022-12-24T14:48:29.442Z,91969.97
2022-12-24T14:51:10.326Z,91972.28
2022-12-24T14:53:58.461Z,91965.75
2022-12-24T14:56:30.994Z,91975.16
2022-12-24T14:59:15.078Z,91976.22
2022-12-24T15:01:47.573Z,91969.50
2022-12-24T15:04:19.982Z,91968.50
2022-12-24T15:06:56.923Z,91970.41
2022-12-24T15:09:33.262Z,91976.44
2022-12-24T15:12:06.451Z,91986.25
2022-12-24T15:14:43.517Z,91994.34
2022-12-24T15:17:18.781Z,92005.03
2022-12-24T15:19:52.737Z,92013.22
2022-12-24T15:22:28.828Z,92017.16
2022-12-24T15:25:01.374Z,92021.56
2022-12-24T15:27:38.894Z,92015.81
2022-12-24T15:30:15.403Z,92017.69
2022-12-24T15:32:49.314Z,92025.66
2022-12-24T15:35:48.960Z,92021.31
2022-12-24T15:38:29.978Z,92034.66
2022-12-24T15:41:06.513Z,92030.41
2022-12-24T15:43:40.369Z,92026.75
2022-12-24T15:46:19.759Z,92031.84
2022-12-24T15:48:54.230Z,92032.41
2022-12-24T15:51:28.635Z,92030.25
2022-12-24T15:54:04.930Z,92033.53
2022-12-24T15:56:43.161Z,92039.84
2022-12-24T15:59:35.480Z,92036.81
2022-12-24T16:02:33.553Z,92041.94
2022-12-24T16:05:30.224Z,92046.69
2022-12-24T16:08:20.798Z,92047.50
2022-12-24T16:11:08.883Z,92056.78
2022-12-24T16:13:42.777Z,92058.06
2022-12-24T16:16:17.786Z,92052.56
2022-12-24T16:18:54.927Z,92039.84
2022-12-24T16:21:31.900Z,92055.28
2022-12-24T16:24:07.227Z,92054.22
2022-12-24T16:26:40.685Z,92050.25
2022-12-24T16:29:13.694Z,92050.47
2022-12-24T16:31:49.556Z,92055.41
2022-12-24T16:34:24.891Z,92059.84
2022-12-24T16:36:58.344Z,92076.00
2022-12-24T16:39:33.120Z,92084.56
2022-12-24T16:42:24.557Z,92089.69
2022-12-24T16:44:56.953Z,92088.59
2022-12-24T16:47:35.718Z,92088.59
2022-12-24T16:50:15.467Z,92093.97
2022-12-24T16:52:47.906Z,92102.22
2022-12-24T16:55:20.244Z,92110.25
2022-12-24T16:57:53.273Z,92116.28
2022-12-24T17:00:25.863Z,92125.81
2022-12-24T17:02:58.415Z,92124.25
2022-12-24T17:05:30.862Z,92132.28
2022-12-24T17:08:03.588Z,92117.03
2022-12-24T17:10:36.631Z,92122.59
2022-12-24T17:13:09.681Z,92124.41
2022-12-24T17:15:42.182Z,92114.78
2022-12-24T17:18:14.558Z,92117.19
2022-12-24T17:20:57.150Z,92127.41
2022-12-24T17:23:31.237Z,92136.59
2022-12-24T17:26:08.934Z,92144.34
2022-12-24T17:28:45.676Z,92141.97
2022-12-24T17:31:18.140Z,92144.09
2022-12-24T17:33:51.151Z,92135.78
2022-12-24T17:36:23.781Z,92142.47
2022-12-24T17:38:56.213Z,92146.31
2022-12-24T17:41:28.562Z,92141.81
2022-12-24T17:44:01.571Z,92143.34
2022-12-24T17:46:34.319Z,92161.22
2022-12-24T17:49:06.861Z,92144.91
2022-12-24T17:51:44.977Z,92150.78
2022-12-24T17:54:18.131Z,92150.78
2022-12-24T17:56:51.458Z,92153.63
2022-12-24T17:59:24.844Z,92134.75
2022-12-24T18:01:57.220Z,92139.69
2022-12-24T18:04:29.713Z,92149.88
2022-12-24T18:07:03.191Z,92145.00
2022-12-24T18:09:36.113Z,92146.75
2022-12-24T18:12:08.422Z,92140.75
2022-12-24T18:14:41.564Z,92134.22
2022-12-24T18:17:13.869Z,92134.50
2022-12-24T18:19:46.216Z,92146.63
2022-12-24T18:22:18.594Z,92154.63
2022-12-24T18:24:51.011Z,92163.66
2022-12-24T18:27:23.363Z,92163.59
2022-12-24T18:29:56.413Z,92161.50
2022-12-24T18:32:28.709Z,92159.44
2022-12-24T18:35:01.436Z,92172.28
2022-12-24T18:37:33.784Z,92172.31
2022-12-24T18:40:07.727Z,92173.56
2022-12-24T18:42:40.985Z,92170.16
2022-12-24T18:45:14.134Z,92177.72
2022-12-24T18:47:46.477Z,92180.09
2022-12-24T18:50:18.871Z,92176.75
2022-12-24T18:52:51.161Z,92178.31
2022-12-24T18:55:23.561Z,92181.66
2022-12-24T18:57:55.972Z,92186.59
2022-12-24T19:00:29.736Z,92187.13
2022-12-24T19:03:02.253Z,92200.41
2022-12-24T19:05:34.751Z,92205.06
2022-12-24T19:08:37.677Z,92200.97
2022-12-24T19:10:59.615Z,92206.13
2022-12-24T19:13:32.309Z,92208.41
2022-12-24T19:16:07.007Z,92212.91
2022-12-24T19:18:39.429Z,92215.72
2022-12-24T19:21:14.390Z,92197.91
2022-12-24T19:23:47.690Z,92214.41
2022-12-24T19:26:20.851Z,92220.31
2022-12-24T19:28:54.419Z,92212.78
2022-12-24T19:31:27.466Z,92207.88
2022-12-24T19:33:59.840Z,92221.34
2022-12-24T19:36:35.061Z,92218.06
2022-12-24T19:39:07.589Z,92231.03
2022-12-24T19:41:39.933Z,92233.31
2022-12-24T19:44:12.252Z,92231.22
2022-12-24T19:46:45.279Z,92230.16
2022-12-24T19:49:17.653Z,92228.03
2022-12-24T19:51:50.049Z,92227.50
2022-12-24T19:54:22.373Z,92223.88
2022-12-24T19:56:54.789Z,92221.53
2022-12-24T19:59:27.096Z,92226.72
2022-12-24T20:02:00.318Z,92235.56
2022-12-24T20:04:32.833Z,92228.28
2022-12-24T20:07:05.392Z,92218.94
2022-12-24T20:09:39.211Z,92215.00
2022-12-24T20:12:11.857Z,92222.50
2022-12-24T20:14:44.459Z,92220.22
2022-12-24T20:17:17.558Z,92218.94
2022-12-24T20:19:49.927Z,92210.91
2022-12-24T20:22:22.351Z,92215.56
2022-12-24T20:24:54.733Z,92213.50
2022-12-24T20:27:27.746Z,92217.16
2022-12-24T20:30:00.041Z,92232.41
2022-12-24T20:32:33.578Z,92221.78
2022-12-24T20:35:06.474Z,92218.69
2022-12-24T20:37:43.842Z,92217.91
2022-12-24T20:40:18.516Z,92223.13
2022-12-24T20:42:52.965Z,92226.00
2022-12-24T20:45:25.438Z,92230.66
2022-12-24T20:47:58.468Z,92235.34
2022-12-24T20:50:31.076Z,92231.50
2022-12-24T20:53:03.792Z,92239.78
2022-12-24T20:55:36.488Z,92241.88
2022-12-24T20:58:11.484Z,92243.44
2022-12-24T21:00:43.843Z,92262.66
2022-12-24T21:03:17.836Z,92262.41
2022-12-24T21:05:50.267Z,92267.88
2022-12-24T21:08:22.662Z,92268.16
2022-12-24T21:11:18.791Z,92263.22
2022-12-24T21:13:51.099Z,92272.03
2022-12-24T21:16:23.422Z,92285.28
2022-12-24T21:18:56.513Z,92287.63
2022-12-24T21:21:28.849Z,92282.19
2022-12-24T21:24:01.839Z,92287.13
2022-12-24T21:26:34.695Z,92295.41
2022-12-24T21:29:08.434Z,92279.66
2022-12-24T21:31:40.988Z,92291.56
2022-12-24T21:34:14.066Z,92283.28
2022-12-24T21:36:46.447Z,92289.75
2022-12-24T21:39:18.906Z,92298.81
2022-12-24T21:41:51.246Z,92298.81
2022-12-24T21:44:23.678Z,92295.72
2022-12-24T21:46:56.473Z,92298.06
2022-12-24T21:49:47.875Z,92301.16
2022-12-24T21:52:20.399Z,92296.75
2022-12-24T21:54:52.481Z,92294.66
2022-12-24T21:57:54.377Z,92297.78
2022-12-24T22:00:29.885Z,92294.16
2022-12-24T22:03:02.390Z,92301.66
2022-12-24T22:05:35.589Z,92296.16
2022-12-24T22:08:27.333Z,92291.28
2022-12-24T22:11:20.936Z,92293.84
2022-12-24T22:13:53.456Z,92289.16
2022-12-24T22:16:27.347Z,92288.66
2022-12-24T22:19:00.001Z,92296.34
2022-12-24T22:21:33.397Z,92286.03
2022-12-24T22:24:06.971Z,92286.50
2022-12-24T22:26:39.337Z,92284.72
2022-12-24T22:29:11.853Z,92273.09
2022-12-24T22:31:45.914Z,92282.69
2022-12-24T22:34:18.264Z,92281.66
2022-12-24T22:36:51.338Z,92289.41
2022-12-24T22:39:23.759Z,92293.75
2022-12-24T22:41:57.260Z,92297.34
2022-12-24T22:44:29.586Z,92294.78
2022-12-24T22:47:02.161Z,92302.03
2022-12-24T22:49:35.374Z,92306.13
2022-12-24T22:52:08.426Z,92298.09
2022-12-24T22:54:40.852Z,92306.66
2022-12-24T22:57:13.303Z,92300.44
2022-12-24T22:59:46.479Z,92311.28
2022-12-24T23:02:28.798Z,92310.97
2022-12-24T23:05:01.952Z,92315.91
2022-12-24T23:07:34.946Z,92325.75
2022-12-24T23:10:08.470Z,92316.72
2022-12-24T23:12:58.846Z,92320.31
2022-12-24T23:15:33.259Z,92328.06
2022-12-24T23:18:06.715Z,92313.63
2022-12-24T23:20:40.521Z,92315.97
2022-12-24T23:23:14.697Z,92317.00
2022-12-24T23:25:47.015Z,92327.53
2022-12-24T23:28:19.407Z,92327.78
2022-12-24T23:30:57.516Z,92336.59
2022-12-24T23:33:30.005Z,92340.97
2022-12-24T23:36:02.752Z,92342.81
2022-12-24T23:38:35.956Z,92338.69
2022-12-24T23:41:09.243Z,92343.56
2022-12-24T23:43:41.621Z,92346.16
2022-12-24T23:46:14.589Z,92339.41
2022-12-24T23:48:47.438Z,92339.97
2022-12-24T23:51:22.847Z,92347.47
2022-12-24T23:53:56.911Z,92346.66
2022-12-24T23:56:29.279Z,92340.69
2022-12-24T23:59:03.356Z,92338.91
